CDT,Max TemperatureF,Mean TemperatureF,Min TemperatureF,Max Dew PointF,MeanDew PointF,Min DewpointF,Max Humidity, Mean Humidity, Min Humidity, Max Sea Level PressureIn, Mean Sea Level PressureIn, Min Sea Level PressureIn, Max VisibilityMiles, Mean VisibilityMiles, Min VisibilityMiles, Max Wind SpeedMPH, Mean Wind SpeedMPH, Max Gust SpeedMPH,PrecipitationIn, CloudCover, Events, WindDirDegrees
2013-3-1,23,12,0,0,-6,-11,78,48,24,30.40,30.35,30.29,10,10,10,8,4,,0.00,0,,33
2013-3-2,24,3,-18,-11,-18,-26,84,44,10,30.32,30.23,30.13,10,10,10,5,1,,0.00,0,,29
2013-3-3,32,10,-13,7,-3,-18,77,53,30,30.12,30.06,29.99,10,10,3,10,2,,0.00,1,,131
2013-3-4,26,11,-4,18,8,-8,86,75,64,30.10,30.06,30.03,10,10,10,17,5,25,0.00,5,,99
2013-3-5,21,18,15,18,12,9,93,76,63,30.25,30.16,30.08,10,8,2,12,6,17,0.00,5,Snow,39
2013-3-6,24,12,0,12,9,-4,93,76,50,30.31,30.28,30.24,10,8,1,13,3,18,0.00,5,Snow,315
2013-3-7,35,14,-7,12,4,-11,92,70,35,30.35,30.31,30.26,10,10,10,10,1,,0.00,1,,139
2013-3-8,30,19,8,25,18,9,100,83,69,30.30,30.20,30.09,10,8,5,12,3,,0.00,5,,193
2013-3-9,33,27,21,30,27,19,100,93,81,30.08,29.86,29.72,10,5,0,13,3,,0.25,6,Snow,126
2013-3-10,30,24,19,30,23,16,100,86,69,30.02,29.93,29.75,10,9,3,13,7,20,0.00,8,Snow,347
2013-3-11,21,19,17,18,16,12,93,85,74,29.96,29.79,29.70,10,8,2,9,5,,0.00,8,Snow,15
2013-3-12,19,14,8,16,8,3,93,76,58,30.08,29.88,29.72,10,8,2,15,5,22,0.00,5,Snow,327
2013-3-13,30,12,-7,9,3,-13,92,63,37,30.24,30.18,30.08,10,10,10,12,3,16,0.00,0,,308
2013-3-14,37,15,-7,28,12,-13,93,75,51,30.16,30.03,29.92,10,10,3,14,3,18,0.00,4,Snow,252
2013-3-15,28,18,8,25,7,-4,92,67,36,30.03,29.98,29.94,10,8,2,10,7,18,0.02,5,Snow,19
2013-3-16,15,6,-5,5,-2,-9,92,70,45,30.16,30.02,29.97,10,8,2,21,5,29,0.01,5,Snow,301
2013-3-17,21,-2,-25,12,-8,-31,92,64,34,30.21,30.07,29.85,10,10,10,14,4,18,0.00,2,,152
2013-3-18,26,22,19,25,18,9,93,83,58,29.84,29.56,29.43,10,4,1,20,10,28,0.03,8,Snow,164
2013-3-19,21,14,8,16,7,1,93,72,49,29.93,29.74,29.49,10,6,2,22,15,33,0.00,6,Snow,299
2013-3-20,14,8,3,5,2,0,85,70,57,30.04,29.99,29.92,10,8,2,15,10,23,0.00,6,Snow,314
2013-3-21,28,18,6,10,7,1,79,66,43,30.03,30.00,29.96,10,10,7,8,4,,0.00,4,Snow,343
2013-3-22,33,14,-4,18,9,-8,93,72,44,30.05,30.02,29.98,10,10,7,7,1,,0.00,2,,27
2013-3-23,33,17,1,21,14,0,100,75,56,30.11,30.08,30.05,10,9,0,7,1,,0.00,6,Fog,44
2013-3-24,26,22,19,19,16,12,93,71,59,30.09,30.06,30.02,10,10,10,9,2,,0.00,6,Snow,26
2013-3-25,37,21,5,23,14,1,92,68,38,30.16,30.09,30.05,10,10,7,12,2,20,0.00,5,,11
2013-3-26,37,30,24,23,18,10,80,61,33,30.23,30.20,30.16,10,10,10,5,1,,0.00,8,,15
2013-3-27,39,29,19,21,16,10,86,57,31,30.28,30.26,30.23,10,10,10,7,1,,0.00,5,,22
2013-3-28,44,25,6,16,10,3,92,58,23,30.30,30.26,30.21,10,10,10,9,1,,0.00,0,,311
2013-3-29,48,29,10,28,18,9,92,59,31,30.24,30.15,30.01,10,10,10,12,2,17,0.00,0,,203
2013-3-30,51,42,33,37,26,12,100,62,26,30.00,29.81,29.71,10,8,0,14,5,24,0.10,3,Fog-Rain,265
2013-3-31,35,27,19,25,13,1,86,57,37,29.96,29.76,29.63,10,9,1,24,10,36,0.00,7,Snow,307